This is the latest recevied weather packets stored in our database for station/object DB0OHL. If no packets are shown the sender has not sent any weather packets the latest 10 day(s).
| Time | Temp. | Humidity | Pressure | Rain* | Wind** | Luminosity | Snow |
|---|---|---|---|---|---|---|---|
| 1777613771 | 11.11° C | 60% | 1027.2 hPa | 0 mm | - | - | - |
| 1777613168 | 11.11° C | 61% | 1027.1 hPa | 0 mm | - | - | - |
| 1777612566 | 10.56° C | 63% | 1027.1 hPa | 0 mm | - | - | - |
| 1777611963 | 10.56° C | 67% | 1027.2 hPa | 0 mm | - | - | - |
| 1777611361 | 10° C | 68% | 1027.1 hPa | 0 mm | - | - | - |
| 1777610758 | 9.44° C | 70% | 1027 hPa | 0 mm | - | - | - |
| 1777610156 | 9.44° C | 70% | 1027.1 hPa | 0 mm | - | - | - |
| 1777609553 | 8.89° C | 70% | 1027.1 hPa | 0 mm | - | - | - |
| 1777608950 | 8.89° C | 70% | 1027 hPa | 0 mm | - | - | - |
| 1777608348 | 8.89° C | 71% | 1026.9 hPa | 0 mm | - | - | - |
| 1777607745 | 8.89° C | 71% | 1026.8 hPa | 0 mm | - | - | - |
| 1777607143 | 8.89° C | 69% | 1026.9 hPa | 0 mm | - | - | - |
| 1777606540 | 8.89° C | 69% | 1026.9 hPa | 0 mm | - | - | - |
| 1777605938 | 9.44° C | 68% | 1026.8 hPa | 0 mm | - | - | - |
| 1777605335 | 9.44° C | 68% | 1027 hPa | 0 mm | - | - | - |
| 1777604733 | 9.44° C | 66% | 1026.7 hPa | 0 mm | - | - | - |
| 1777604130 | 9.44° C | 67% | 1026.8 hPa | 0 mm | - | - | - |
| 1777603527 | 9.44° C | 67% | 1026.7 hPa | 0 mm | - | - | - |
| 1777602925 | 9.44° C | 67% | 1026.7 hPa | 0 mm | - | - | - |
| 1777602322 | 9.44° C | 67% | 1026.5 hPa | 0 mm | - | - | - |
| 1777601720 | 10° C | 66% | 1026.5 hPa | 0 mm | - | - | - |
| 1777586717 | 12.22° C | 57% | 1026.2 hPa | 0 mm | - | - | - |
| 1777584924 | 12.78° C | 56% | 1026.2 hPa | 0 mm | - | - | - |
| 1777584321 | 12.78° C | 55% | 1026.1 hPa | 0 mm | - | - | - |
| 1777583719 | 12.78° C | 55% | 1026.1 hPa | 0 mm | - | - | - |
* Rain latest hour (hover to see other rain measurements)
** Current wind speed in m/s (hover to see current wind gust speed)